Mayer, Minnesota
Current Conditions -  °F | °C
As of 12:34 PM on Thursday 29 Jan 2015 (Local Time) from KGYL Reporting Station
Clear Clear  
Wind Chill: -8°   Ceiling: Unl
Heat Index: -1°   Visibility: 10mi
Dew Point: -5°   Wind: 21mph
Humidity: 75%   Direction: 300°WNW
Pressure: 30.29"   Gusts: 31mph
Location:  44.88°N, 93.89°W
Report Text: KGYL 291834Z AUTO 30018G27KT 10SM CLR M01/M05 A3029 RMK AO2 T10111051
Loading
Personal Weather Stations






























Interactive Weather Map New forecast layout! Learn more

10-Day Weather Forecast

Advertisements
Track Severe Weather on mobile